createdAt,value
2022-09-10T00:00:23.476Z,11.90
2022-09-10T00:00:53.379Z,11.90
2022-09-10T00:01:23.320Z,11.90
2022-09-10T00:02:12.951Z,11.90
2022-09-10T00:02:25.161Z,11.90
2022-09-10T00:02:55.922Z,11.90
2022-09-10T00:03:31.295Z,11.90
2022-09-10T00:03:57.471Z,11.90
2022-09-10T00:04:28.826Z,11.90
2022-09-10T00:05:02.042Z,11.90
2022-09-10T00:05:33.437Z,11.90
2022-09-10T00:06:04.613Z,11.90
2022-09-10T00:06:34.119Z,11.90
2022-09-10T00:07:04.471Z,11.90
2022-09-10T00:07:35.470Z,11.90
2022-09-10T00:15:37.201Z,12.00
2022-09-10T00:15:54.494Z,12.20
2022-09-10T00:16:25.897Z,12.20
2022-09-10T00:16:55.816Z,12.30
2022-09-10T00:17:25.771Z,12.30
2022-09-10T00:18:00.172Z,12.30
2022-09-10T00:18:46.374Z,12.50
2022-09-10T00:19:52.744Z,12.50
2022-09-10T00:19:59.988Z,12.50
2022-09-10T00:20:32.669Z,12.50
2022-09-10T00:21:03.769Z,12.50
2022-09-10T00:21:34.031Z,12.50
2022-09-10T00:22:06.505Z,12.50
2022-09-10T00:22:35.129Z,12.50
2022-09-10T00:23:05.727Z,12.50
2022-09-10T00:23:48.940Z,12.50
2022-09-10T00:24:07.450Z,12.50
2022-09-10T00:24:41.238Z,12.50
2022-09-10T00:25:10.657Z,12.50
2022-09-10T00:25:40.499Z,12.50
2022-09-10T00:26:11.655Z,12.50
2022-09-10T00:27:15.714Z,12.50
2022-09-10T00:27:47.294Z,12.50
2022-09-10T00:28:17.263Z,12.50
2022-09-10T00:28:47.559Z,12.50
2022-09-10T00:29:17.646Z,12.50
2022-09-10T00:29:48.261Z,12.50
2022-09-10T00:30:23.956Z,12.50
2022-09-10T00:30:49.714Z,12.50
2022-09-10T00:31:20.991Z,12.50
2022-09-10T00:31:56.293Z,12.60
2022-09-10T00:32:25.760Z,12.60
2022-09-10T00:32:56.793Z,12.60
2022-09-10T00:33:27.057Z,12.70
2022-09-10T00:33:58.356Z,12.70
2022-09-10T00:34:32.143Z,12.70
2022-09-10T00:35:05.867Z,12.80
2022-09-10T00:35:29.806Z,12.90
2022-09-10T00:36:01.166Z,12.90
2022-09-10T00:36:31.153Z,12.90
2022-09-10T00:37:04.167Z,12.90
2022-09-10T00:37:35.200Z,12.90
2022-09-10T00:38:06.007Z,13.00
2022-09-10T00:38:38.300Z,13.00
2022-09-10T00:39:07.349Z,13.00
2022-09-10T00:39:36.949Z,13.10
2022-09-10T00:40:07.881Z,13.10
2022-09-10T00:40:39.149Z,13.10
2022-09-10T00:41:11.126Z,13.20
2022-09-10T00:41:46.087Z,13.20
2022-09-10T00:42:13.094Z,13.20
2022-09-10T00:42:45.366Z,13.30
2022-09-10T00:43:16.081Z,13.30
2022-09-10T00:43:46.765Z,13.30
2022-09-10T00:44:16.535Z,13.30
2022-09-10T00:44:47.119Z,13.30
2022-09-10T00:45:18.589Z,13.30
2022-09-10T00:45:49.317Z,13.30
2022-09-10T00:46:20.521Z,13.30
2022-09-10T00:46:51.304Z,13.40
2022-09-10T00:47:24.322Z,13.40
2022-09-10T00:47:54.946Z,13.40
2022-09-10T00:48:25.952Z,13.40
2022-09-10T00:48:56.724Z,13.40
2022-09-10T00:49:26.908Z,13.40
2022-09-10T00:49:57.526Z,13.40
2022-09-10T00:50:46.694Z,13.40
2022-09-10T00:50:59.793Z,13.40
2022-09-10T00:51:30.464Z,13.40
2022-09-10T00:52:02.153Z,13.40
2022-09-10T00:52:39.417Z,13.40
2022-09-10T00:53:04.897Z,13.40
2022-09-10T00:53:38.281Z,13.40
2022-09-10T00:54:07.323Z,13.50
2022-09-10T00:54:38.031Z,13.50
2022-09-10T00:55:09.141Z,13.50
2022-09-10T00:55:38.643Z,13.50
2022-09-10T00:56:12.160Z,13.50
2022-09-10T00:56:40.179Z,13.50
2022-09-10T00:57:11.635Z,13.50
2022-09-10T00:57:43.403Z,13.50
2022-09-10T00:58:18.271Z,13.50
2022-09-10T00:58:48.441Z,13.50
2022-09-10T00:59:33.542Z,13.50
2022-09-10T00:59:49.027Z,13.50
2022-09-10T01:00:19.434Z,13.50
2022-09-10T01:00:50.191Z,13.50
2022-09-10T01:01:20.473Z,13.50
2022-09-10T01:01:55.675Z,13.50
2022-09-10T01:02:28.215Z,13.50
2022-09-10T01:03:25.850Z,13.40
2022-09-10T01:03:56.011Z,13.40
2022-09-10T01:04:28.122Z,13.40
2022-09-10T01:04:59.345Z,13.50
2022-09-10T01:05:29.060Z,13.50
2022-09-10T01:05:58.869Z,13.50
2022-09-10T01:06:30.393Z,13.50
2022-09-10T01:07:03.376Z,13.40
2022-09-10T01:07:32.144Z,13.40
2022-09-10T01:08:02.902Z,13.40
2022-09-10T01:08:51.985Z,13.40
2022-09-10T01:09:05.294Z,13.40
2022-09-10T01:09:39.563Z,13.40
2022-09-10T01:10:08.499Z,13.40
2022-09-10T01:10:38.755Z,13.40
2022-09-10T01:11:14.461Z,13.40
2022-09-10T01:11:43.091Z,13.40
2022-09-10T01:12:11.608Z,13.40
2022-09-10T01:12:41.718Z,13.40
2022-09-10T01:13:13.046Z,13.40
2022-09-10T01:13:45.440Z,13.40
2022-09-10T01:14:16.450Z,13.40
2022-09-10T01:14:48.261Z,13.40
2022-09-10T01:15:20.075Z,13.40
2022-09-10T01:15:47.890Z,13.40
2022-09-10T01:16:20.269Z,13.40
2022-09-10T01:16:49.801Z,13.40
2022-09-10T01:17:22.747Z,13.30
2022-09-10T01:17:51.554Z,13.30
2022-09-10T01:18:22.526Z,13.30
2022-09-10T01:18:56.933Z,13.30
2022-09-10T01:19:24.923Z,13.30
2022-09-10T01:19:57.223Z,13.30
2022-09-10T01:20:28.329Z,13.30
2022-09-10T01:20:57.854Z,13.30
2022-09-10T01:22:09.983Z,13.30
2022-09-10T01:22:33.611Z,13.30
2022-09-10T01:23:01.829Z,13.30
2022-09-10T01:23:33.007Z,13.30
2022-09-10T01:24:03.812Z,13.30
2022-09-10T01:24:38.394Z,13.30
2022-09-10T01:25:09.492Z,13.30
2022-09-10T01:25:37.327Z,13.30
2022-09-10T01:26:16.880Z,13.30
2022-09-10T01:26:38.824Z,13.30
2022-09-10T01:27:09.697Z,13.30
2022-09-10T01:27:44.931Z,13.30
2022-09-10T01:28:14.713Z,13.30
2022-09-10T01:28:48.156Z,13.30
2022-09-10T01:29:14.791Z,13.30
2022-09-10T01:29:46.051Z,13.30
2022-09-10T01:30:16.209Z,13.30
2022-09-10T01:30:46.287Z,13.30
2022-09-10T01:31:16.879Z,13.30
2022-09-10T01:31:50.121Z,13.30
2022-09-10T01:32:31.545Z,13.30
2022-09-10T01:32:50.080Z,13.30
2022-09-10T01:33:31.017Z,13.30
2022-09-10T01:33:52.542Z,13.30
2022-09-10T01:34:24.298Z,13.40
2022-09-10T01:34:55.268Z,13.40
2022-09-10T01:35:25.908Z,13.40
2022-09-10T01:35:59.430Z,13.40
2022-09-10T01:36:29.097Z,13.40
2022-09-10T01:37:29.181Z,13.40
2022-09-10T01:38:00.825Z,13.40
2022-09-10T01:38:31.145Z,13.40
2022-09-10T01:39:03.177Z,13.40
2022-09-10T01:39:34.696Z,13.40
2022-09-10T01:40:07.098Z,13.40
2022-09-10T01:40:37.640Z,13.40
2022-09-10T01:41:06.428Z,13.40
2022-09-10T01:41:37.073Z,13.40
2022-09-10T01:42:07.970Z,13.50
2022-09-10T01:42:41.760Z,13.50
2022-09-10T01:43:10.716Z,13.50
2022-09-10T01:43:44.984Z,13.50
2022-09-10T01:44:12.710Z,13.50
2022-09-10T01:44:45.110Z,13.50
2022-09-10T01:45:18.149Z,13.50
2022-09-10T01:45:45.707Z,13.50
2022-09-10T01:46:17.194Z,13.60
2022-09-10T01:46:47.348Z,13.60
2022-09-10T01:47:18.014Z,13.60
2022-09-10T01:47:50.094Z,13.60
2022-09-10T01:48:20.682Z,13.60
2022-09-10T01:48:51.568Z,13.60
2022-09-10T01:49:21.902Z,13.60
2022-09-10T01:49:54.146Z,13.70
2022-09-10T01:50:25.953Z,13.70
2022-09-10T01:50:56.292Z,13.70
2022-09-10T01:51:26.619Z,13.70
2022-09-10T01:51:57.207Z,13.70
2022-09-10T01:52:28.493Z,13.70
2022-09-10T01:53:01.342Z,13.70
2022-09-10T01:53:34.128Z,13.70
2022-09-10T01:54:01.547Z,13.70
2022-09-10T01:54:32.142Z,13.70
2022-09-10T01:55:03.946Z,13.70
2022-09-10T01:55:35.081Z,13.80
2022-09-10T01:56:06.989Z,13.80
2022-09-10T01:56:37.590Z,13.80
2022-09-10T01:57:08.457Z,13.80
2022-09-10T01:57:38.159Z,13.80
2022-09-10T01:58:08.953Z,13.80
2022-09-10T01:58:40.825Z,13.80
2022-09-10T01:59:15.652Z,13.80
2022-09-10T01:59:42.607Z,13.80
2022-09-10T02:00:14.560Z,13.90
2022-09-10T02:00:46.174Z,13.90
2022-09-10T02:01:23.343Z,13.90
2022-09-10T02:01:46.707Z,13.90
2022-09-10T02:02:17.134Z,13.90
2022-09-10T02:02:48.044Z,13.90
2022-09-10T02:03:19.134Z,13.90
2022-09-10T02:03:51.088Z,14.00
2022-09-10T02:04:25.478Z,14.00
2022-09-10T02:04:54.217Z,14.00
2022-09-10T02:05:25.555Z,14.00
2022-09-10T02:05:54.958Z,14.00
2022-09-10T02:06:27.095Z,14.00
2022-09-10T02:07:30.833Z,14.00
2022-09-10T02:08:01.139Z,14.00
2022-09-10T02:08:29.103Z,14.00
2022-09-10T02:09:31.039Z,14.00
2022-09-10T02:10:02.587Z,14.00
2022-09-10T02:10:34.376Z,14.00
2022-09-10T02:11:06.410Z,14.00
2022-09-10T02:11:52.405Z,14.00
2022-09-10T02:12:09.255Z,14.00
2022-09-10T02:12:37.611Z,14.00
2022-09-10T02:13:11.319Z,14.00
2022-09-10T02:13:39.415Z,14.00
2022-09-10T02:14:10.927Z,14.00
2022-09-10T02:14:58.311Z,14.00
2022-09-10T02:15:43.261Z,14.00
2022-09-10T02:16:15.721Z,14.00
2022-09-10T02:16:46.726Z,14.00
2022-09-10T02:17:17.051Z,14.00
2022-09-10T02:17:47.255Z,14.00
2022-09-10T02:18:19.019Z,14.00
2022-09-10T02:18:49.155Z,14.00
2022-09-10T02:19:20.451Z,14.00
2022-09-10T02:19:51.219Z,14.00
2022-09-10T02:20:22.915Z,14.00
2022-09-10T02:20:53.156Z,14.00
2022-09-10T02:21:27.619Z,14.00
2022-09-10T02:21:56.122Z,14.00
2022-09-10T02:22:26.688Z,14.00
2022-09-10T02:22:59.565Z,14.00
2022-09-10T02:23:28.121Z,14.00
2022-09-10T02:23:59.273Z,14.00
2022-09-10T02:24:30.377Z,14.00
2022-09-10T02:25:03.275Z,14.00
2022-09-10T02:25:32.478Z,14.00
2022-09-10T02:26:06.381Z,14.00
2022-09-10T02:26:34.818Z,14.00
2022-09-10T02:27:07.666Z,14.00
2022-09-10T02:27:39.116Z,14.00
2022-09-10T02:28:11.295Z,14.00
2022-09-10T02:28:41.171Z,14.00
2022-09-10T02:29:09.719Z,14.00
2022-09-10T02:29:40.574Z,14.00
2022-09-10T02:30:12.455Z,14.00
2022-09-10T02:30:42.065Z,14.00
2022-09-10T02:31:13.759Z,14.00
2022-09-10T02:31:46.518Z,14.00
2022-09-10T02:32:16.865Z,14.00
2022-09-10T02:33:04.011Z,14.00
2022-09-10T02:33:17.774Z,14.00
2022-09-10T02:33:48.139Z,14.00
2022-09-10T02:34:19.616Z,14.00
2022-09-10T02:34:51.000Z,14.00
2022-09-10T02:35:21.892Z,14.00
2022-09-10T02:35:52.226Z,14.00
2022-09-10T02:36:27.262Z,14.00
2022-09-10T02:36:54.351Z,14.00
2022-09-10T02:37:26.462Z,13.90
2022-09-10T02:38:02.226Z,13.90
2022-09-10T02:38:27.518Z,13.90
2022-09-10T02:38:57.955Z,13.90
2022-09-10T02:39:29.158Z,13.90
2022-09-10T02:40:00.503Z,13.90
2022-09-10T02:41:02.434Z,14.00
2022-09-10T02:41:33.182Z,14.00
2022-09-10T02:42:04.437Z,14.00
2022-09-10T02:42:35.725Z,14.00
2022-09-10T02:43:09.214Z,14.00
2022-09-10T02:43:37.014Z,14.00
2022-09-10T02:44:09.192Z,14.00
2022-09-10T02:44:39.295Z,14.00
2022-09-10T02:45:11.594Z,14.00
2022-09-10T02:45:51.203Z,14.00
2022-09-10T02:46:12.672Z,14.00
2022-09-10T02:46:43.078Z,14.00
2022-09-10T02:47:14.508Z,14.00
2022-09-10T02:47:45.399Z,14.00
2022-09-10T02:48:16.947Z,14.00
2022-09-10T02:48:48.517Z,14.00
2022-09-10T02:49:49.443Z,14.00
2022-09-10T02:50:20.880Z,14.00
2022-09-10T02:50:51.844Z,14.00
2022-09-10T02:51:22.275Z,14.00
2022-09-10T02:51:53.118Z,14.00
2022-09-10T02:52:27.834Z,14.00
2022-09-10T02:52:55.245Z,14.00
2022-09-10T02:53:28.405Z,14.00
2022-09-10T02:53:58.784Z,14.00
2022-09-10T02:54:29.204Z,14.00
2022-09-10T02:54:59.707Z,14.00
2022-09-10T02:55:30.452Z,13.90
2022-09-10T02:56:01.971Z,13.90
2022-09-10T02:56:32.386Z,13.90
2022-09-10T02:57:04.014Z,13.90
2022-09-10T02:57:34.602Z,13.90
2022-09-10T02:58:06.158Z,13.90
2022-09-10T02:58:38.274Z,13.90
2022-09-10T02:59:24.564Z,13.90
2022-09-10T02:59:40.923Z,13.90
2022-09-10T03:00:14.922Z,13.90
2022-09-10T03:00:41.066Z,13.90
2022-09-10T03:01:11.626Z,13.90
2022-09-10T03:01:42.348Z,13.90
2022-09-10T03:02:13.458Z,13.90
2022-09-10T03:02:44.203Z,13.90
2022-09-10T03:03:15.066Z,13.90
2022-09-10T03:03:47.848Z,13.90
2022-09-10T03:04:18.120Z,13.90
2022-09-10T03:04:50.018Z,13.90
2022-09-10T03:05:20.048Z,13.90
2022-09-10T03:05:50.476Z,13.90
2022-09-10T03:06:21.475Z,13.90
2022-09-10T03:06:52.956Z,13.90
2022-09-10T03:07:24.220Z,13.90
2022-09-10T03:07:55.325Z,13.90
2022-09-10T03:08:25.125Z,13.90
2022-09-10T03:08:56.611Z,13.90
2022-09-10T03:09:29.172Z,13.90
2022-09-10T03:09:59.573Z,13.90
2022-09-10T03:10:29.562Z,13.90
2022-09-10T03:11:01.158Z,13.90
2022-09-10T03:11:32.054Z,13.90
2022-09-10T03:12:02.173Z,13.90
2022-09-10T03:12:33.229Z,13.90
2022-09-10T03:13:04.406Z,13.90
2022-09-10T03:13:36.940Z,13.90
2022-09-10T03:14:07.394Z,13.90
2022-09-10T03:14:38.382Z,13.90
2022-09-10T03:15:09.488Z,13.90
2022-09-10T03:15:39.330Z,13.90
2022-09-10T03:16:11.469Z,13.90
2022-09-10T03:16:41.498Z,13.90
2022-09-10T03:17:12.453Z,13.90
2022-09-10T03:17:43.371Z,13.90
2022-09-10T03:18:14.850Z,13.90
2022-09-10T03:18:45.523Z,13.90
2022-09-10T03:19:16.957Z,13.90
2022-09-10T03:19:47.563Z,13.90
2022-09-10T03:20:22.635Z,13.90
2022-09-10T03:20:52.903Z,13.90
2022-09-10T03:21:20.674Z,13.90
2022-09-10T03:21:51.858Z,13.90
2022-09-10T03:22:22.331Z,13.90
2022-09-10T03:22:53.516Z,13.90
2022-09-10T03:23:24.952Z,13.90
2022-09-10T03:23:57.065Z,13.80
2022-09-10T03:24:27.027Z,13.80
2022-09-10T03:25:00.951Z,13.80
2022-09-10T03:25:29.629Z,13.80
2022-09-10T03:26:00.556Z,13.80
2022-09-10T03:26:30.827Z,13.80
2022-09-10T03:27:01.513Z,13.80
2022-09-10T03:27:32.604Z,13.80
2022-09-10T03:28:03.583Z,13.80
2022-09-10T03:28:34.774Z,13.80
2022-09-10T03:29:05.942Z,13.80
2022-09-10T03:29:40.237Z,13.80
2022-09-10T03:30:08.747Z,13.80
2022-09-10T03:30:39.988Z,13.80
2022-09-10T03:31:10.127Z,13.80
2022-09-10T03:31:59.563Z,13.70
2022-09-10T03:32:11.530Z,13.70
2022-09-10T03:32:43.150Z,13.70
2022-09-10T03:33:44.970Z,13.70
2022-09-10T03:34:15.630Z,13.70
2022-09-10T03:34:46.678Z,13.70
2022-09-10T03:35:19.026Z,13.70
2022-09-10T03:35:49.892Z,13.70
2022-09-10T03:36:38.045Z,13.70
2022-09-10T03:36:51.399Z,13.70
2022-09-10T03:37:21.326Z,13.70
2022-09-10T03:37:52.241Z,13.70
2022-09-10T03:38:24.084Z,13.70
2022-09-10T03:38:54.298Z,13.70
2022-09-10T03:39:25.670Z,13.70
2022-09-10T03:39:56.407Z,13.70
2022-09-10T03:40:29.049Z,13.70
2022-09-10T03:40:59.815Z,13.70
2022-09-10T03:41:30.733Z,13.70
2022-09-10T03:42:02.742Z,13.70
2022-09-10T03:42:31.307Z,13.70
2022-09-10T03:43:02.421Z,13.70
2022-09-10T03:43:33.529Z,13.70
2022-09-10T03:44:04.422Z,13.70
2022-09-10T03:44:35.482Z,13.70
2022-09-10T03:45:07.186Z,13.70
2022-09-10T03:45:38.789Z,13.70
2022-09-10T03:46:09.352Z,13.70
2022-09-10T03:46:40.144Z,13.70
2022-09-10T03:47:10.692Z,13.70
2022-09-10T03:47:41.464Z,13.70
2022-09-10T03:48:12.452Z,13.70
2022-09-10T03:48:43.318Z,13.70
2022-09-10T03:49:16.988Z,13.70
2022-09-10T03:49:45.638Z,13.70
2022-09-10T03:50:19.824Z,13.70
2022-09-10T03:50:53.511Z,13.70
2022-09-10T03:51:19.810Z,13.70
2022-09-10T03:51:50.543Z,13.70
2022-09-10T03:52:21.461Z,13.70
2022-09-10T03:52:51.700Z,13.70
2022-09-10T03:53:23.488Z,13.70
2022-09-10T03:53:53.691Z,13.70
2022-09-10T03:54:24.672Z,13.70
2022-09-10T03:54:55.685Z,13.70
2022-09-10T03:55:26.522Z,13.70
2022-09-10T03:55:58.916Z,13.70
2022-09-10T03:56:34.222Z,13.70
2022-09-10T03:57:00.721Z,13.70
2022-09-10T03:57:31.007Z,13.70
2022-09-10T03:58:01.291Z,13.70
2022-09-10T03:58:32.387Z,13.70
2022-09-10T03:59:03.613Z,13.70
2022-09-10T03:59:34.576Z,13.70
2022-09-10T04:00:12.541Z,13.70
2022-09-10T04:00:37.722Z,13.70
2022-09-10T04:01:07.877Z,13.70
2022-09-10T04:01:38.492Z,13.70
2022-09-10T04:02:10.063Z,13.70
2022-09-10T04:02:41.216Z,13.70
2022-09-10T04:03:11.369Z,13.70
2022-09-10T04:03:42.385Z,13.70
2022-09-10T04:04:17.494Z,13.70
2022-09-10T04:04:44.767Z,13.70
2022-09-10T04:05:15.851Z,13.70
2022-09-10T04:05:47.883Z,13.70
2022-09-10T04:06:18.622Z,13.70
2022-09-10T04:06:49.013Z,13.70
2022-09-10T04:07:19.578Z,13.70
2022-09-10T04:07:52.878Z,13.70
2022-09-10T04:08:22.473Z,13.70
2022-09-10T04:08:52.399Z,13.70
2022-09-10T04:09:23.551Z,13.70
2022-09-10T04:09:55.937Z,13.70
2022-09-10T04:10:25.864Z,13.70
2022-09-10T04:10:56.476Z,13.70
2022-09-10T04:11:28.338Z,13.70
2022-09-10T04:11:59.475Z,13.70
2022-09-10T04:12:29.884Z,13.70
2022-09-10T04:13:00.867Z,13.70
2022-09-10T04:13:34.377Z,13.70
2022-09-10T04:14:03.262Z,13.70
2022-09-10T04:14:33.876Z,13.70
2022-09-10T04:15:05.079Z,13.70
2022-09-10T04:15:35.819Z,13.70
2022-09-10T04:16:07.347Z,13.70
2022-09-10T04:16:39.059Z,13.70
2022-09-10T04:17:09.026Z,13.70
2022-09-10T04:18:12.876Z,13.70
2022-09-10T04:18:41.540Z,13.70
2022-09-10T04:19:12.708Z,13.70
2022-09-10T04:19:43.653Z,13.70
2022-09-10T04:20:16.772Z,13.70
2022-09-10T04:20:46.140Z,13.60
2022-09-10T04:21:17.635Z,13.60
2022-09-10T04:21:48.124Z,13.60
2022-09-10T04:22:18.815Z,13.60
2022-09-10T04:22:51.254Z,13.60
2022-09-10T04:23:38.428Z,13.60
2022-09-10T04:23:51.449Z,13.60
2022-09-10T04:24:22.416Z,13.60
2022-09-10T04:24:53.562Z,13.60
2022-09-10T04:25:24.564Z,13.60
2022-09-10T04:25:55.341Z,13.60
2022-09-10T04:26:27.662Z,13.60
2022-09-10T04:27:03.959Z,13.60
2022-09-10T04:27:29.250Z,13.60
2022-09-10T04:27:59.967Z,13.60
2022-09-10T04:28:30.636Z,13.60
2022-09-10T04:29:01.722Z,13.60
2022-09-10T04:29:32.588Z,13.60
2022-09-10T04:30:04.886Z,13.50
2022-09-10T04:31:23.555Z,13.50
2022-09-10T04:32:09.265Z,13.50
2022-09-10T04:32:56.321Z,13.50
2022-09-10T04:33:11.065Z,13.50
2022-09-10T04:33:41.349Z,13.50
2022-09-10T04:34:11.533Z,13.50
2022-09-10T04:34:42.514Z,13.40
2022-09-10T04:35:14.029Z,13.40
2022-09-10T04:35:44.772Z,13.40
2022-09-10T04:36:24.729Z,13.40
2022-09-10T04:36:47.381Z,13.40
2022-09-10T04:37:19.683Z,13.40
2022-09-10T04:37:58.327Z,13.30
2022-09-10T04:38:21.358Z,13.30
2022-09-10T04:38:53.769Z,13.30
2022-09-10T04:39:24.174Z,13.30
2022-09-10T04:39:55.887Z,13.30
2022-09-10T04:40:25.739Z,13.30
2022-09-10T04:40:55.089Z,13.30
2022-09-10T04:41:26.123Z,13.30
2022-09-10T04:41:56.465Z,13.30
2022-09-10T04:42:30.107Z,13.30
2022-09-10T04:42:59.351Z,13.30
2022-09-10T04:43:34.517Z,13.30
2022-09-10T04:44:00.592Z,13.30
2022-09-10T04:44:31.539Z,13.30
2022-09-10T04:45:03.383Z,13.20
2022-09-10T04:45:37.213Z,13.20
2022-09-10T04:46:04.890Z,13.20
2022-09-10T04:46:37.080Z,13.20
2022-09-10T04:47:07.695Z,13.20
2022-09-10T04:47:38.514Z,13.20
2022-09-10T04:48:09.773Z,13.20
2022-09-10T04:48:39.992Z,13.20
2022-09-10T04:49:11.402Z,13.20
2022-09-10T04:49:41.640Z,13.20
2022-09-10T04:50:15.901Z,13.20
2022-09-10T04:51:05.427Z,13.20
2022-09-10T04:51:46.132Z,13.20
2022-09-10T04:52:18.141Z,13.20
2022-09-10T04:52:51.139Z,13.20
2022-09-10T04:53:19.853Z,13.20
2022-09-10T04:54:21.368Z,13.20
2022-09-10T04:54:52.401Z,13.20
2022-09-10T04:55:22.869Z,13.20
2022-09-10T04:56:00.331Z,13.20
2022-09-10T04:56:25.480Z,13.20
2022-09-10T04:56:56.503Z,13.20
2022-09-10T04:57:31.132Z,13.20
2022-09-10T04:57:58.782Z,13.20
2022-09-10T04:58:30.036Z,13.20
2022-09-10T04:59:00.807Z,13.20
2022-09-10T04:59:31.018Z,13.20
2022-09-10T05:00:07.410Z,13.20
2022-09-10T05:00:35.548Z,13.20
2022-09-10T05:01:03.934Z,13.20
2022-09-10T05:01:36.406Z,13.20
2022-09-10T05:02:06.090Z,13.20
2022-09-10T05:02:37.231Z,13.20
2022-09-10T05:03:09.750Z,13.20
2022-09-10T05:03:40.096Z,13.20
2022-09-10T05:04:09.877Z,13.20
2022-09-10T05:04:40.860Z,13.20
2022-09-10T05:05:11.903Z,13.20
2022-09-10T05:05:46.302Z,13.20
2022-09-10T05:06:28.887Z,13.20
2022-09-10T05:07:19.251Z,13.20
2022-09-10T05:08:19.495Z,13.20
2022-09-10T05:08:49.505Z,13.20
2022-09-10T05:09:22.968Z,13.20
2022-09-10T05:09:53.728Z,13.20
2022-09-10T05:10:21.764Z,13.20
2022-09-10T05:10:54.034Z,13.20
2022-09-10T05:11:23.979Z,13.20
2022-09-10T05:12:11.856Z,13.20
2022-09-10T05:12:29.133Z,13.20
2022-09-10T05:13:01.882Z,13.20
2022-09-10T05:14:00.069Z,13.20
2022-09-10T05:14:32.884Z,13.20
2022-09-10T05:15:01.543Z,13.10
2022-09-10T05:15:44.638Z,13.10
2022-09-10T05:16:20.715Z,13.10
2022-09-10T05:16:34.271Z,13.10
2022-09-10T05:17:04.881Z,13.10
2022-09-10T05:17:36.065Z,13.10
2022-09-10T05:18:36.476Z,13.10
2022-09-10T05:20:14.715Z,13.10
2022-09-10T05:20:42.221Z,13.10
2022-09-10T05:23:50.975Z,13.10
2022-09-10T07:10:52.353Z,18.20
2022-09-10T07:11:20.896Z,18.10
2022-09-10T07:11:51.280Z,18.10
2022-09-10T07:12:26.416Z,18.10
2022-09-10T07:12:53.407Z,18.10
2022-09-10T07:13:30.332Z,18.00
2022-09-10T07:14:14.199Z,18.00
2022-09-10T07:14:27.440Z,18.00
2022-09-10T07:15:07.792Z,17.90
2022-09-10T07:15:32.529Z,17.90
2022-09-10T07:16:00.745Z,17.80
2022-09-10T07:16:50.426Z,17.70
2022-09-10T07:17:01.983Z,17.50
2022-09-10T07:17:35.034Z,17.40
2022-09-10T07:18:03.689Z,17.40
2022-09-10T07:18:34.312Z,17.40
2022-09-10T07:19:05.393Z,17.30
2022-09-10T07:20:10.352Z,17.30
2022-09-10T07:20:39.509Z,17.30
2022-09-10T07:21:09.413Z,17.30
2022-09-10T07:57:39.542Z,17.90
2022-09-10T07:58:11.371Z,17.80
2022-09-10T07:59:14.545Z,17.70
2022-09-10T07:59:42.331Z,17.70
2022-09-10T08:00:17.331Z,17.70
2022-09-10T08:00:45.093Z,17.70
2022-09-10T08:01:15.757Z,17.80
2022-09-10T08:01:47.081Z,17.80
2022-09-10T08:02:18.960Z,17.80
2022-09-10T08:02:50.451Z,17.70
2022-09-10T08:03:19.679Z,17.70
2022-09-10T08:04:21.518Z,17.60
2022-09-10T08:04:24.614Z,17.60
2022-09-10T08:05:29.417Z,17.60
2022-09-10T08:05:54.649Z,17.60
2022-09-10T08:06:25.954Z,17.60
2022-09-10T08:06:58.251Z,17.60
2022-09-10T08:07:30.840Z,17.60
2022-09-10T08:08:01.500Z,17.60
2022-09-10T08:08:30.425Z,17.60
2022-09-10T08:09:19.588Z,17.50
2022-09-10T08:09:34.268Z,17.50
2022-09-10T08:10:03.702Z,17.50
2022-09-10T08:10:33.917Z,17.50
2022-09-10T08:11:12.004Z,17.50
2022-09-10T08:11:36.326Z,17.50
2022-09-10T08:12:10.742Z,17.50
2022-09-10T08:12:39.530Z,17.50
2022-09-10T08:13:10.503Z,17.50
2022-09-10T08:13:41.758Z,17.60
2022-09-10T08:14:10.897Z,17.60
2022-09-10T08:14:41.907Z,17.60
2022-09-10T08:15:14.551Z,17.60
2022-09-10T08:15:43.929Z,17.60
2022-09-10T08:16:14.901Z,17.60
2022-09-10T08:16:45.684Z,17.60
2022-09-10T08:17:17.454Z,17.60
2022-09-10T08:17:51.716Z,17.60
2022-09-10T08:18:21.405Z,17.60
2022-09-10T08:18:51.998Z,17.60
2022-09-10T08:19:21.614Z,17.60
2022-09-10T08:20:08.779Z,17.60
2022-09-10T08:20:24.958Z,17.60
2022-09-10T08:20:54.058Z,17.60
2022-09-10T08:21:30.652Z,17.60
2022-09-10T08:21:56.790Z,17.60
2022-09-10T08:22:28.433Z,17.50
2022-09-10T08:23:01.085Z,17.50
2022-09-10T08:23:31.698Z,17.50
2022-09-10T08:24:03.633Z,17.50
2022-09-10T08:24:32.538Z,17.50
2022-09-10T08:25:03.806Z,17.50
2022-09-10T08:25:33.527Z,17.50
2022-09-10T08:26:08.355Z,17.60
2022-09-10T08:26:35.930Z,17.60
2022-09-10T08:27:07.057Z,17.60
2022-09-10T08:27:38.430Z,17.80
2022-09-10T08:28:11.097Z,17.90
2022-09-10T08:28:43.134Z,17.90
2022-09-10T08:29:13.185Z,18.00
2022-09-10T08:29:43.138Z,18.00
2022-09-10T08:30:24.112Z,18.00
2022-09-10T08:30:43.608Z,18.00
2022-09-10T08:31:14.281Z,18.00
2022-09-10T08:31:45.075Z,18.00
2022-09-10T08:32:17.441Z,18.00
2022-09-10T08:32:48.419Z,17.90
2022-09-10T08:33:20.229Z,17.90
2022-09-10T08:33:52.000Z,17.90
2022-09-10T08:34:22.552Z,17.80
2022-09-10T08:34:52.602Z,17.80
2022-09-10T08:35:22.976Z,17.80
2022-09-10T08:35:53.626Z,17.70
2022-09-10T08:36:24.931Z,17.70
2022-09-10T08:36:56.225Z,17.60
2022-09-10T08:37:33.463Z,17.60
2022-09-10T08:37:57.932Z,17.60
2022-09-10T08:38:38.088Z,17.50
2022-09-10T08:39:07.618Z,17.50
2022-09-10T08:39:33.768Z,17.50
2022-09-10T08:40:04.471Z,17.40
2022-09-10T08:40:35.095Z,17.30
2022-09-10T08:41:04.527Z,17.20
2022-09-10T08:41:34.869Z,17.20
2022-09-10T08:42:05.532Z,17.10
2022-09-10T08:42:39.294Z,17.10
2022-09-10T08:43:11.368Z,17.10
2022-09-10T08:43:40.791Z,17.10
2022-09-10T08:44:10.015Z,17.00
2022-09-10T08:44:40.966Z,17.00
2022-09-10T08:45:15.798Z,17.00
2022-09-10T08:45:44.625Z,17.00
2022-09-10T08:46:17.229Z,17.00
2022-09-10T08:46:44.888Z,17.00
2022-09-10T08:47:18.865Z,17.00
2022-09-10T08:48:18.469Z,17.10
2022-09-10T08:48:49.489Z,17.10
2022-09-10T08:49:23.382Z,17.10
2022-09-10T08:49:53.035Z,17.10
2022-09-10T08:50:25.185Z,17.20
2022-09-10T08:50:54.612Z,17.20
2022-09-10T08:51:25.505Z,17.20
2022-09-10T08:51:55.175Z,17.20
2022-09-10T08:52:25.853Z,17.20
2022-09-10T08:52:57.383Z,17.20
2022-09-10T08:53:28.134Z,17.20
2022-09-10T08:53:59.108Z,17.20
2022-09-10T08:54:34.971Z,17.30
2022-09-10T08:55:04.283Z,17.30
2022-09-10T08:55:34.727Z,17.30
2022-09-10T08:56:04.969Z,17.40
2022-09-10T08:56:39.210Z,17.40
2022-09-10T08:57:05.371Z,17.40
2022-09-10T08:57:36.376Z,17.50
2022-09-10T08:58:07.994Z,17.50
2022-09-10T08:58:38.693Z,17.60
2022-09-10T08:59:09.203Z,17.60
2022-09-10T08:59:41.844Z,17.60
2022-09-10T09:00:16.228Z,17.60
2022-09-10T09:00:45.614Z,17.70
2022-09-10T09:01:15.151Z,17.70
2022-09-10T09:01:45.102Z,17.80
2022-09-10T09:02:31.648Z,17.80
2022-09-10T09:02:49.235Z,17.80
2022-09-10T09:03:17.173Z,17.80
2022-09-10T09:03:48.471Z,17.90
2022-09-10T09:04:20.399Z,17.90
2022-09-10T09:04:50.678Z,18.00
2022-09-10T09:05:24.396Z,18.00
2022-09-10T09:05:55.051Z,18.00
2022-09-10T09:06:25.668Z,18.00
2022-09-10T09:06:56.278Z,18.00
2022-09-10T09:07:25.840Z,18.00
2022-09-10T09:07:57.588Z,18.00
2022-09-10T09:08:27.083Z,18.00
2022-09-10T09:08:58.074Z,18.00
2022-09-10T09:09:29.884Z,17.90
2022-09-10T09:09:59.786Z,17.80
2022-09-10T09:10:31.756Z,17.60
2022-09-10T09:11:04.533Z,17.60
2022-09-10T09:11:50.273Z,17.60
2022-09-10T09:12:07.339Z,17.60
2022-09-10T09:12:36.457Z,17.60
2022-09-10T09:13:06.414Z,17.50
2022-09-10T09:13:38.994Z,17.40
2022-09-10T09:14:08.160Z,17.40
2022-09-10T09:14:39.537Z,17.40
2022-09-10T09:15:16.007Z,17.40
2022-09-10T09:15:40.832Z,17.40
2022-09-10T09:16:14.069Z,17.40
2022-09-10T09:16:45.018Z,17.40
2022-09-10T09:17:17.750Z,17.40
2022-09-10T09:17:47.214Z,17.40
2022-09-10T09:18:16.933Z,17.40
2022-09-10T09:18:49.154Z,17.40
2022-09-10T09:19:50.183Z,17.50
2022-09-10T09:20:20.887Z,17.50
2022-09-10T09:20:54.444Z,17.50
2022-09-10T09:21:21.968Z,17.50
2022-09-10T09:21:57.100Z,17.50
2022-09-10T09:22:26.111Z,17.50
2022-09-10T09:23:28.255Z,17.50
2022-09-10T09:24:12.540Z,17.50
2022-09-10T09:25:01.997Z,17.50
2022-09-10T09:25:30.782Z,17.50
2022-09-10T09:26:05.405Z,17.40
2022-09-10T09:27:04.319Z,17.40